sensor_id;sensor_type;location;lat;lon;timestamp;P1;durP1;ratioP1;P2;durP2;ratioP2
46613;SDS011;32338;50.430;6.806;2023-03-14T00:02:21;12.15;;;1.90;;
46613;SDS011;32338;50.430;6.806;2023-03-14T00:04:48;6.25;;;1.27;;
46613;SDS011;32338;50.430;6.806;2023-03-14T00:07:15;9.30;;;2.05;;
46613;SDS011;32338;50.430;6.806;2023-03-14T00:09:42;11.77;;;1.38;;
46613;SDS011;32338;50.430;6.806;2023-03-14T00:12:09;9.98;;;1.30;;
46613;SDS011;32338;50.430;6.806;2023-03-14T00:14:35;9.15;;;1.52;;
46613;SDS011;32338;50.430;6.806;2023-03-14T00:17:03;9.60;;;1.10;;
46613;SDS011;32338;50.430;6.806;2023-03-14T00:19:30;8.18;;;1.38;;
46613;SDS011;32338;50.430;6.806;2023-03-14T00:21:57;9.68;;;1.38;;
46613;SDS011;32338;50.430;6.806;2023-03-14T00:24:24;8.25;;;1.35;;
46613;SDS011;32338;50.430;6.806;2023-03-14T00:26:51;10.07;;;1.20;;
46613;SDS011;32338;50.430;6.806;2023-03-14T00:29:17;12.82;;;1.58;;
46613;SDS011;32338;50.430;6.806;2023-03-14T00:31:44;10.82;;;1.52;;
46613;SDS011;32338;50.430;6.806;2023-03-14T00:34:13;15.43;;;1.73;;
46613;SDS011;32338;50.430;6.806;2023-03-14T00:36:40;8.48;;;1.20;;
46613;SDS011;32338;50.430;6.806;2023-03-14T00:39:06;8.00;;;1.10;;
46613;SDS011;32338;50.430;6.806;2023-03-14T00:41:33;5.88;;;1.20;;
46613;SDS011;32338;50.430;6.806;2023-03-14T00:44:00;9.73;;;1.63;;
46613;SDS011;32338;50.430;6.806;2023-03-14T00:46:27;6.40;;;1.08;;
46613;SDS011;32338;50.430;6.806;2023-03-14T00:48:55;7.80;;;1.17;;
46613;SDS011;32338;50.430;6.806;2023-03-14T00:51:24;7.95;;;1.73;;
46613;SDS011;32338;50.430;6.806;2023-03-14T00:53:50;10.65;;;1.50;;
46613;SDS011;32338;50.430;6.806;2023-03-14T00:56:17;10.68;;;1.27;;
46613;SDS011;32338;50.430;6.806;2023-03-14T00:58:44;8.43;;;1.42;;
46613;SDS011;32338;50.430;6.806;2023-03-14T01:01:12;9.18;;;1.40;;
46613;SDS011;32338;50.430;6.806;2023-03-14T01:03:40;8.18;;;0.93;;
46613;SDS011;32338;50.430;6.806;2023-03-14T01:06:08;6.50;;;1.30;;
46613;SDS011;32338;50.430;6.806;2023-03-14T01:08:38;6.25;;;1.10;;
46613;SDS011;32338;50.430;6.806;2023-03-14T01:11:08;8.00;;;1.52;;
46613;SDS011;32338;50.430;6.806;2023-03-14T01:13:35;7.10;;;1.20;;
46613;SDS011;32338;50.430;6.806;2023-03-14T01:16:03;8.57;;;1.15;;
46613;SDS011;32338;50.430;6.806;2023-03-14T01:18:32;8.10;;;0.98;;
46613;SDS011;32338;50.430;6.806;2023-03-14T01:21:01;5.65;;;1.30;;
46613;SDS011;32338;50.430;6.806;2023-03-14T01:23:28;7.97;;;1.30;;
46613;SDS011;32338;50.430;6.806;2023-03-14T01:25:56;8.70;;;1.40;;
46613;SDS011;32338;50.430;6.806;2023-03-14T01:28:23;10.10;;;1.70;;
46613;SDS011;32338;50.430;6.806;2023-03-14T01:30:49;11.57;;;1.20;;
46613;SDS011;32338;50.430;6.806;2023-03-14T01:33:18;11.35;;;1.40;;
46613;SDS011;32338;50.430;6.806;2023-03-14T01:35:44;9.07;;;1.30;;
46613;SDS011;32338;50.430;6.806;2023-03-14T01:38:11;6.82;;;1.02;;
46613;SDS011;32338;50.430;6.806;2023-03-14T01:40:41;13.32;;;1.50;;
46613;SDS011;32338;50.430;6.806;2023-03-14T01:43:14;8.93;;;1.30;;
46613;SDS011;32338;50.430;6.806;2023-03-14T01:45:55;7.90;;;1.13;;
46613;SDS011;32338;50.430;6.806;2023-03-14T01:48:47;12.73;;;1.90;;
46613;SDS011;32338;50.430;6.806;2023-03-14T01:51:21;9.20;;;1.60;;
46613;SDS011;32338;50.430;6.806;2023-03-14T01:53:53;10.82;;;1.52;;
46613;SDS011;32338;50.430;6.806;2023-03-14T01:56:25;8.13;;;1.25;;
46613;SDS011;32338;50.430;6.806;2023-03-14T01:58:54;6.38;;;1.35;;
46613;SDS011;32338;50.430;6.806;2023-03-14T02:01:21;11.55;;;1.40;;
46613;SDS011;32338;50.430;6.806;2023-03-14T02:03:52;13.98;;;2.05;;
46613;SDS011;32338;50.430;6.806;2023-03-14T02:06:21;9.52;;;1.90;;
46613;SDS011;32338;50.430;6.806;2023-03-14T02:08:51;7.80;;;1.60;;
46613;SDS011;32338;50.430;6.806;2023-03-14T02:11:19;8.10;;;1.25;;
46613;SDS011;32338;50.430;6.806;2023-03-14T02:13:46;11.25;;;2.05;;
46613;SDS011;32338;50.430;6.806;2023-03-14T02:16:14;8.45;;;1.17;;
46613;SDS011;32338;50.430;6.806;2023-03-14T02:18:41;5.25;;;1.20;;
46613;SDS011;32338;50.430;6.806;2023-03-14T02:21:10;8.20;;;1.20;;
46613;SDS011;32338;50.430;6.806;2023-03-14T02:23:45;10.98;;;1.83;;
46613;SDS011;32338;50.430;6.806;2023-03-14T02:26:20;8.43;;;2.00;;
46613;SDS011;32338;50.430;6.806;2023-03-14T02:28:51;7.70;;;1.38;;
46613;SDS011;32338;50.430;6.806;2023-03-14T02:54:51;12.48;;;1.75;;
46613;SDS011;32338;50.430;6.806;2023-03-14T02:57:18;11.25;;;1.30;;
46613;SDS011;32338;50.430;6.806;2023-03-14T02:59:45;15.30;;;1.70;;
46613;SDS011;32338;50.430;6.806;2023-03-14T03:02:12;9.98;;;1.40;;
46613;SDS011;32338;50.430;6.806;2023-03-14T03:04:39;6.32;;;1.20;;
46613;SDS011;32338;50.430;6.806;2023-03-14T03:07:05;15.80;;;1.20;;
46613;SDS011;32338;50.430;6.806;2023-03-14T03:09:32;17.92;;;1.58;;
46613;SDS011;32338;50.430;6.806;2023-03-14T03:12:00;9.23;;;1.45;;
46613;SDS011;32338;50.430;6.806;2023-03-14T03:14:27;9.50;;;1.33;;
46613;SDS011;32338;50.430;6.806;2023-03-14T03:16:54;6.82;;;1.35;;
46613;SDS011;32338;50.430;6.806;2023-03-14T03:19:21;9.50;;;1.30;;
46613;SDS011;32338;50.430;6.806;2023-03-14T03:21:47;6.28;;;1.38;;
46613;SDS011;32338;50.430;6.806;2023-03-14T03:24:14;13.07;;;1.85;;
46613;SDS011;32338;50.430;6.806;2023-03-14T03:26:41;6.70;;;1.05;;
46613;SDS011;32338;50.430;6.806;2023-03-14T03:29:09;12.70;;;1.42;;
46613;SDS011;32338;50.430;6.806;2023-03-14T03:31:36;5.68;;;1.33;;
46613;SDS011;32338;50.430;6.806;2023-03-14T03:34:03;10.20;;;1.13;;
46613;SDS011;32338;50.430;6.806;2023-03-14T03:36:30;7.80;;;1.27;;
46613;SDS011;32338;50.430;6.806;2023-03-14T03:38:56;7.53;;;1.00;;
46613;SDS011;32338;50.430;6.806;2023-03-14T03:41:23;8.25;;;1.10;;
46613;SDS011;32338;50.430;6.806;2023-03-14T03:43:52;8.05;;;1.00;;
46613;SDS011;32338;50.430;6.806;2023-03-14T03:46:20;3.17;;;0.80;;
46613;SDS011;32338;50.430;6.806;2023-03-14T03:48:47;4.00;;;0.70;;
46613;SDS011;32338;50.430;6.806;2023-03-14T03:51:14;3.45;;;0.88;;
46613;SDS011;32338;50.430;6.806;2023-03-14T03:53:42;3.28;;;0.75;;
46613;SDS011;32338;50.430;6.806;2023-03-14T03:56:09;7.82;;;0.90;;
46613;SDS011;32338;50.430;6.806;2023-03-14T03:58:36;3.85;;;0.68;;
46613;SDS011;32338;50.430;6.806;2023-03-14T04:01:04;5.35;;;0.90;;
46613;SDS011;32338;50.430;6.806;2023-03-14T04:03:33;3.95;;;0.50;;
46613;SDS011;32338;50.430;6.806;2023-03-14T04:06:01;3.60;;;0.60;;
46613;SDS011;32338;50.430;6.806;2023-03-14T04:08:29;2.45;;;0.47;;
46613;SDS011;32338;50.430;6.806;2023-03-14T04:10:56;4.53;;;0.55;;
46613;SDS011;32338;50.430;6.806;2023-03-14T04:13:26;1.98;;;0.52;;
46613;SDS011;32338;50.430;6.806;2023-03-14T04:15:53;3.47;;;0.80;;
46613;SDS011;32338;50.430;6.806;2023-03-14T04:18:20;1.35;;;0.43;;
46613;SDS011;32338;50.430;6.806;2023-03-14T04:20:52;4.18;;;0.60;;
46613;SDS011;32338;50.430;6.806;2023-03-14T04:23:19;1.48;;;0.30;;
46613;SDS011;32338;50.430;6.806;2023-03-14T04:25:46;0.93;;;0.22;;
46613;SDS011;32338;50.430;6.806;2023-03-14T04:28:15;2.67;;;0.60;;
46613;SDS011;32338;50.430;6.806;2023-03-14T04:30:42;1.17;;;0.17;;
46613;SDS011;32338;50.430;6.806;2023-03-14T04:33:08;1.08;;;0.30;;
46613;SDS011;32338;50.430;6.806;2023-03-14T04:35:37;1.38;;;0.38;;
46613;SDS011;32338;50.430;6.806;2023-03-14T04:38:05;1.17;;;0.40;;
46613;SDS011;32338;50.430;6.806;2023-03-14T04:40:32;1.88;;;0.30;;
46613;SDS011;32338;50.430;6.806;2023-03-14T04:42:59;1.20;;;0.30;;
46613;SDS011;32338;50.430;6.806;2023-03-14T04:45:26;6.07;;;0.25;;
46613;SDS011;32338;50.430;6.806;2023-03-14T04:47:52;0.40;;;0.10;;
46613;SDS011;32338;50.430;6.806;2023-03-14T04:50:19;0.47;;;0.20;;
46613;SDS011;32338;50.430;6.806;2023-03-14T04:52:46;0.55;;;0.10;;
46613;SDS011;32338;50.430;6.806;2023-03-14T04:55:14;1.70;;;0.30;;
46613;SDS011;32338;50.430;6.806;2023-03-14T04:57:44;0.77;;;0.28;;
46613;SDS011;32338;50.430;6.806;2023-03-14T05:00:11;0.63;;;0.10;;
46613;SDS011;32338;50.430;6.806;2023-03-14T05:02:38;0.52;;;0.20;;
46613;SDS011;32338;50.430;6.806;2023-03-14T05:05:06;0.55;;;0.20;;
46613;SDS011;32338;50.430;6.806;2023-03-14T05:07:34;0.50;;;0.10;;
46613;SDS011;32338;50.430;6.806;2023-03-14T05:10:00;3.10;;;0.20;;
46613;SDS011;32338;50.430;6.806;2023-03-14T05:12:28;1.15;;;0.20;;
46613;SDS011;32338;50.430;6.806;2023-03-14T05:14:55;1.52;;;0.17;;
46613;SDS011;32338;50.430;6.806;2023-03-14T05:17:22;1.20;;;0.20;;
46613;SDS011;32338;50.430;6.806;2023-03-14T05:19:49;0.20;;;0.10;;
46613;SDS011;32338;50.430;6.806;2023-03-14T05:22:18;1.25;;;0.10;;
46613;SDS011;32338;50.430;6.806;2023-03-14T05:24:44;1.27;;;0.20;;
46613;SDS011;32338;50.430;6.806;2023-03-14T05:27:11;0.25;;;0.10;;
46613;SDS011;32338;50.430;6.806;2023-03-14T05:29:39;1.23;;;0.30;;
46613;SDS011;32338;50.430;6.806;2023-03-14T05:32:06;0.30;;;0.15;;
46613;SDS011;32338;50.430;6.806;2023-03-14T05:34:33;0.10;;;0.10;;
46613;SDS011;32338;50.430;6.806;2023-03-14T05:37:00;0.55;;;0.10;;
46613;SDS011;32338;50.430;6.806;2023-03-14T05:39:26;0.45;;;0.10;;
46613;SDS011;32338;50.430;6.806;2023-03-14T05:41:53;0.50;;;0.10;;
46613;SDS011;32338;50.430;6.806;2023-03-14T05:44:21;1.92;;;0.17;;
46613;SDS011;32338;50.430;6.806;2023-03-14T05:46:49;0.20;;;0.08;;
46613;SDS011;32338;50.430;6.806;2023-03-14T05:49:15;0.20;;;0.10;;
46613;SDS011;32338;50.430;6.806;2023-03-14T05:51:42;2.55;;;0.10;;
46613;SDS011;32338;50.430;6.806;2023-03-14T05:54:09;0.38;;;0.03;;
46613;SDS011;32338;50.430;6.806;2023-03-14T05:56:36;1.20;;;0.10;;
46613;SDS011;32338;50.430;6.806;2023-03-14T05:59:03;0.63;;;0.10;;
46613;SDS011;32338;50.430;6.806;2023-03-14T06:01:29;0.10;;;0.10;;
46613;SDS011;32338;50.430;6.806;2023-03-14T06:04:01;0.38;;;0.10;;
46613;SDS011;32338;50.430;6.806;2023-03-14T06:06:28;0.38;;;0.00;;
46613;SDS011;32338;50.430;6.806;2023-03-14T06:08:54;0.65;;;0.00;;
46613;SDS011;32338;50.430;6.806;2023-03-14T06:11:21;0.47;;;0.00;;
46613;SDS011;32338;50.430;6.806;2023-03-14T06:13:48;0.55;;;0.10;;
46613;SDS011;32338;50.430;6.806;2023-03-14T06:16:14;0.20;;;0.10;;
46613;SDS011;32338;50.430;6.806;2023-03-14T06:18:43;0.10;;;0.10;;
46613;SDS011;32338;50.430;6.806;2023-03-14T06:21:13;0.10;;;0.00;;
46613;SDS011;32338;50.430;6.806;2023-03-14T06:23:39;0.08;;;0.05;;
46613;SDS011;32338;50.430;6.806;2023-03-14T06:26:06;0.50;;;0.20;;
46613;SDS011;32338;50.430;6.806;2023-03-14T06:28:33;0.90;;;0.00;;
46613;SDS011;32338;50.430;6.806;2023-03-14T06:31:00;0.15;;;0.10;;
46613;SDS011;32338;50.430;6.806;2023-03-14T06:33:29;0.52;;;0.20;;
46613;SDS011;32338;50.430;6.806;2023-03-14T06:35:55;0.00;;;0.00;;
46613;SDS011;32338;50.430;6.806;2023-03-14T06:38:25;0.20;;;0.00;;
46613;SDS011;32338;50.430;6.806;2023-03-14T06:40:51;0.00;;;0.00;;
46613;SDS011;32338;50.430;6.806;2023-03-14T06:43:18;2.33;;;0.00;;
46613;SDS011;32338;50.430;6.806;2023-03-14T06:45:45;0.82;;;0.05;;
46613;SDS011;32338;50.430;6.806;2023-03-14T06:48:12;0.10;;;0.00;;
46613;SDS011;32338;50.430;6.806;2023-03-14T06:50:38;0.10;;;0.10;;
46613;SDS011;32338;50.430;6.806;2023-03-14T06:53:05;0.20;;;0.00;;
46613;SDS011;32338;50.430;6.806;2023-03-14T06:55:33;0.03;;;0.00;;
46613;SDS011;32338;50.430;6.806;2023-03-14T06:58:00;0.10;;;0.05;;
46613;SDS011;32338;50.430;6.806;2023-03-14T07:00:33;0.00;;;0.00;;
46613;SDS011;32338;50.430;6.806;2023-03-14T07:03:00;0.10;;;0.10;;
46613;SDS011;32338;50.430;6.806;2023-03-14T07:05:27;0.10;;;0.00;;
46613;SDS011;32338;50.430;6.806;2023-03-14T07:07:56;0.20;;;0.00;;
46613;SDS011;32338;50.430;6.806;2023-03-14T07:10:27;0.00;;;0.00;;
46613;SDS011;32338;50.430;6.806;2023-03-14T07:12:55;0.15;;;0.00;;
46613;SDS011;32338;50.430;6.806;2023-03-14T07:15:21;0.43;;;0.00;;
46613;SDS011;32338;50.430;6.806;2023-03-14T07:17:48;0.00;;;0.00;;
46613;SDS011;32338;50.430;6.806;2023-03-14T07:20:15;0.45;;;0.00;;
46613;SDS011;32338;50.430;6.806;2023-03-14T07:22:42;0.00;;;0.00;;
46613;SDS011;32338;50.430;6.806;2023-03-14T07:25:09;0.47;;;0.00;;
46613;SDS011;32338;50.430;6.806;2023-03-14T07:27:37;0.40;;;0.10;;
46613;SDS011;32338;50.430;6.806;2023-03-14T07:30:06;0.00;;;0.00;;
46613;SDS011;32338;50.430;6.806;2023-03-14T07:32:34;0.32;;;0.10;;
46613;SDS011;32338;50.430;6.806;2023-03-14T07:35:01;1.30;;;0.15;;
46613;SDS011;32338;50.430;6.806;2023-03-14T07:37:27;1.27;;;0.10;;
46613;SDS011;32338;50.430;6.806;2023-03-14T07:39:54;0.00;;;0.00;;
46613;SDS011;32338;50.430;6.806;2023-03-14T07:42:21;0.63;;;0.10;;
46613;SDS011;32338;50.430;6.806;2023-03-14T07:44:47;0.10;;;0.00;;
46613;SDS011;32338;50.430;6.806;2023-03-14T07:47:15;0.03;;;0.00;;
46613;SDS011;32338;50.430;6.806;2023-03-14T07:49:42;0.80;;;0.00;;
46613;SDS011;32338;50.430;6.806;2023-03-14T07:52:09;0.00;;;0.00;;
46613;SDS011;32338;50.430;6.806;2023-03-14T07:54:35;0.10;;;0.00;;
46613;SDS011;32338;50.430;6.806;2023-03-14T07:57:02;1.27;;;0.00;;
46613;SDS011;32338;50.430;6.806;2023-03-14T07:59:29;0.05;;;0.00;;
46613;SDS011;32338;50.430;6.806;2023-03-14T08:01:56;0.00;;;0.00;;
46613;SDS011;32338;50.430;6.806;2023-03-14T08:04:24;0.00;;;0.00;;
46613;SDS011;32338;50.430;6.806;2023-03-14T08:06:52;0.00;;;0.00;;
46613;SDS011;32338;50.430;6.806;2023-03-14T08:09:19;0.08;;;0.05;;
46613;SDS011;32338;50.430;6.806;2023-03-14T08:11:46;0.22;;;0.10;;
46613;SDS011;32338;50.430;6.806;2023-03-14T08:14:12;0.00;;;0.00;;
46613;SDS011;32338;50.430;6.806;2023-03-14T08:16:39;0.20;;;0.00;;
46613;SDS011;32338;50.430;6.806;2023-03-14T08:19:06;0.20;;;0.00;;
46613;SDS011;32338;50.430;6.806;2023-03-14T08:21:35;0.00;;;0.00;;
46613;SDS011;32338;50.430;6.806;2023-03-14T08:24:02;0.00;;;0.00;;
46613;SDS011;32338;50.430;6.806;2023-03-14T08:26:29;0.10;;;0.05;;
46613;SDS011;32338;50.430;6.806;2023-03-14T08:28:55;0.13;;;0.00;;
46613;SDS011;32338;50.430;6.806;2023-03-14T08:31:22;0.20;;;0.10;;
46613;SDS011;32338;50.430;6.806;2023-03-14T08:33:48;0.15;;;0.00;;
46613;SDS011;32338;50.430;6.806;2023-03-14T08:36:17;3.30;;;0.00;;
46613;SDS011;32338;50.430;6.806;2023-03-14T08:38:47;0.00;;;0.00;;
46613;SDS011;32338;50.430;6.806;2023-03-14T08:41:17;0.00;;;0.00;;
46613;SDS011;32338;50.430;6.806;2023-03-14T08:43:43;0.10;;;0.00;;
46613;SDS011;32338;50.430;6.806;2023-03-14T08:46:12;0.08;;;0.00;;
46613;SDS011;32338;50.430;6.806;2023-03-14T08:48:39;0.35;;;0.10;;
46613;SDS011;32338;50.430;6.806;2023-03-14T08:51:06;0.13;;;0.10;;
46613;SDS011;32338;50.430;6.806;2023-03-14T08:53:33;0.00;;;0.00;;
46613;SDS011;32338;50.430;6.806;2023-03-14T08:56:02;0.20;;;0.00;;
46613;SDS011;32338;50.430;6.806;2023-03-14T08:58:31;0.20;;;0.10;;
46613;SDS011;32338;50.430;6.806;2023-03-14T09:00:58;0.63;;;0.10;;
46613;SDS011;32338;50.430;6.806;2023-03-14T09:03:25;0.00;;;0.00;;
46613;SDS011;32338;50.430;6.806;2023-03-14T09:05:51;0.00;;;0.00;;
46613;SDS011;32338;50.430;6.806;2023-03-14T09:08:18;0.25;;;0.00;;
46613;SDS011;32338;50.430;6.806;2023-03-14T09:10:46;0.00;;;0.00;;
46613;SDS011;32338;50.430;6.806;2023-03-14T09:13:16;0.00;;;0.00;;
46613;SDS011;32338;50.430;6.806;2023-03-14T09:15:43;0.20;;;0.00;;
46613;SDS011;32338;50.430;6.806;2023-03-14T09:18:10;0.30;;;0.08;;
46613;SDS011;32338;50.430;6.806;2023-03-14T09:20:37;0.08;;;0.00;;
46613;SDS011;32338;50.430;6.806;2023-03-14T09:23:06;0.30;;;0.00;;
46613;SDS011;32338;50.430;6.806;2023-03-14T09:25:33;0.63;;;0.10;;
46613;SDS011;32338;50.430;6.806;2023-03-14T09:28:03;0.00;;;0.00;;
46613;SDS011;32338;50.430;6.806;2023-03-14T09:30:32;0.00;;;0.00;;
46613;SDS011;32338;50.430;6.806;2023-03-14T09:32:59;0.03;;;0.00;;
46613;SDS011;32338;50.430;6.806;2023-03-14T09:35:29;0.32;;;0.10;;
46613;SDS011;32338;50.430;6.806;2023-03-14T09:37:59;0.00;;;0.00;;
46613;SDS011;32338;50.430;6.806;2023-03-14T09:40:27;0.03;;;0.00;;
46613;SDS011;32338;50.430;6.806;2023-03-14T09:42:57;0.17;;;0.00;;
46613;SDS011;32338;50.430;6.806;2023-03-14T09:45:25;0.22;;;0.10;;
46613;SDS011;32338;50.430;6.806;2023-03-14T09:47:55;0.38;;;0.03;;
46613;SDS011;32338;50.430;6.806;2023-03-14T09:50:24;2.05;;;0.20;;
46613;SDS011;32338;50.430;6.806;2023-03-14T09:53:02;0.65;;;0.00;;
46613;SDS011;32338;50.430;6.806;2023-03-14T09:55:34;0.17;;;0.00;;
46613;SDS011;32338;50.430;6.806;2023-03-14T09:58:02;1.08;;;0.00;;
46613;SDS011;32338;50.430;6.806;2023-03-14T10:00:35;0.00;;;0.00;;
46613;SDS011;32338;50.430;6.806;2023-03-14T10:03:14;0.00;;;0.00;;
46613;SDS011;32338;50.430;6.806;2023-03-14T10:08:15;0.00;;;0.00;;
46613;SDS011;32338;50.430;6.806;2023-03-14T10:10:41;0.00;;;0.00;;
46613;SDS011;32338;50.430;6.806;2023-03-14T10:13:12;0.10;;;0.10;;
46613;SDS011;32338;50.430;6.806;2023-03-14T10:15:47;0.43;;;0.20;;
46613;SDS011;32338;50.430;6.806;2023-03-14T10:18:19;1.73;;;0.00;;
46613;SDS011;32338;50.430;6.806;2023-03-14T10:20:47;0.05;;;0.00;;
46613;SDS011;32338;50.430;6.806;2023-03-14T10:23:26;1.40;;;0.95;;
46613;SDS011;32338;50.430;6.806;2023-03-14T10:25:58;4.43;;;3.20;;
46613;SDS011;32338;50.430;6.806;2023-03-14T10:28:32;0.00;;;0.00;;
46613;SDS011;32338;50.430;6.806;2023-03-14T10:31:04;0.00;;;0.00;;
46613;SDS011;32338;50.430;6.806;2023-03-14T10:33:33;0.10;;;0.10;;
46613;SDS011;32338;50.430;6.806;2023-03-14T10:36:02;0.10;;;0.10;;
46613;SDS011;32338;50.430;6.806;2023-03-14T10:38:32;0.00;;;0.00;;
46613;SDS011;32338;50.430;6.806;2023-03-14T10:41:00;0.20;;;0.08;;
46613;SDS011;32338;50.430;6.806;2023-03-14T10:43:31;0.10;;;0.10;;
46613;SDS011;32338;50.430;6.806;2023-03-14T10:46:06;0.65;;;0.30;;
46613;SDS011;32338;50.430;6.806;2023-03-14T10:48:38;0.13;;;0.10;;
46613;SDS011;32338;50.430;6.806;2023-03-14T10:51:07;1.30;;;0.20;;
46613;SDS011;32338;50.430;6.806;2023-03-14T10:53:40;1.27;;;0.30;;
46613;SDS011;32338;50.430;6.806;2023-03-14T10:56:11;1.15;;;0.40;;
46613;SDS011;32338;50.430;6.806;2023-03-14T10:58:42;1.15;;;0.20;;
46613;SDS011;32338;50.430;6.806;2023-03-14T11:01:14;0.30;;;0.30;;
46613;SDS011;32338;50.430;6.806;2023-03-14T11:03:56;0.50;;;0.30;;
46613;SDS011;32338;50.430;6.806;2023-03-14T11:06:29;0.60;;;0.30;;
46613;SDS011;32338;50.430;6.806;2023-03-14T11:09:05;1.35;;;0.13;;
46613;SDS011;32338;50.430;6.806;2023-03-14T11:11:36;0.50;;;0.20;;
46613;SDS011;32338;50.430;6.806;2023-03-14T11:14:11;1.77;;;0.20;;
46613;SDS011;32338;50.430;6.806;2023-03-14T11:16:47;0.68;;;0.30;;
46613;SDS011;32338;50.430;6.806;2023-03-14T11:19:24;0.73;;;0.30;;
46613;SDS011;32338;50.430;6.806;2023-03-14T11:22:13;0.40;;;0.20;;
46613;SDS011;32338;50.430;6.806;2023-03-14T11:24:53;0.13;;;0.10;;
46613;SDS011;32338;50.430;6.806;2023-03-14T11:27:34;0.20;;;0.20;;
46613;SDS011;32338;50.430;6.806;2023-03-14T11:30:14;0.13;;;0.10;;
46613;SDS011;32338;50.430;6.806;2023-03-14T11:32:44;0.20;;;0.10;;
46613;SDS011;32338;50.430;6.806;2023-03-14T11:35:22;0.20;;;0.20;;
46613;SDS011;32338;50.430;6.806;2023-03-14T11:37:54;0.57;;;0.30;;
46613;SDS011;32338;50.430;6.806;2023-03-14T11:40:27;0.30;;;0.30;;
46613;SDS011;32338;50.430;6.806;2023-03-14T11:42:59;0.25;;;0.20;;
46613;SDS011;32338;50.430;6.806;2023-03-14T11:45:30;0.50;;;0.20;;
46613;SDS011;32338;50.430;6.806;2023-03-14T11:48:13;0.25;;;0.25;;
46613;SDS011;32338;50.430;6.806;2023-03-14T11:50:48;0.93;;;0.40;;
46613;SDS011;32338;50.430;6.806;2023-03-14T11:53:19;0.38;;;0.30;;
46613;SDS011;32338;50.430;6.806;2023-03-14T11:55:52;0.38;;;0.22;;
46613;SDS011;32338;50.430;6.806;2023-03-14T11:58:20;0.30;;;0.30;;
46613;SDS011;32338;50.430;6.806;2023-03-14T12:00:50;0.28;;;0.28;;
46613;SDS011;32338;50.430;6.806;2023-03-14T12:03:21;0.30;;;0.20;;
46613;SDS011;32338;50.430;6.806;2023-03-14T12:06:08;0.52;;;0.30;;
46613;SDS011;32338;50.430;6.806;2023-03-14T12:08:43;0.60;;;0.30;;
46613;SDS011;32338;50.430;6.806;2023-03-14T12:11:15;1.17;;;0.20;;
46613;SDS011;32338;50.430;6.806;2023-03-14T12:13:58;0.20;;;0.17;;
46613;SDS011;32338;50.430;6.806;2023-03-14T12:16:32;0.20;;;0.20;;
46613;SDS011;32338;50.430;6.806;2023-03-14T12:22:05;0.10;;;0.10;;
46613;SDS011;32338;50.430;6.806;2023-03-14T12:24:48;0.47;;;0.20;;
46613;SDS011;32338;50.430;6.806;2023-03-14T12:30:14;0.30;;;0.30;;
46613;SDS011;32338;50.430;6.806;2023-03-14T12:35:57;0.60;;;0.50;;
46613;SDS011;32338;50.430;6.806;2023-03-14T12:38:39;0.57;;;0.30;;
46613;SDS011;32338;50.430;6.806;2023-03-14T12:41:15;0.50;;;0.35;;
46613;SDS011;32338;50.430;6.806;2023-03-14T12:43:46;0.90;;;0.40;;
46613;SDS011;32338;50.430;6.806;2023-03-14T12:46:20;0.55;;;0.30;;
46613;SDS011;32338;50.430;6.806;2023-03-14T12:48:49;0.50;;;0.50;;
46613;SDS011;32338;50.430;6.806;2023-03-14T12:51:21;2.47;;;0.40;;
46613;SDS011;32338;50.430;6.806;2023-03-14T12:56:57;0.40;;;0.40;;
46613;SDS011;32338;50.430;6.806;2023-03-14T12:59:32;0.47;;;0.40;;
46613;SDS011;32338;50.430;6.806;2023-03-14T13:02:01;0.68;;;0.32;;
46613;SDS011;32338;50.430;6.806;2023-03-14T13:04:43;2.10;;;0.77;;
46613;SDS011;32338;50.430;6.806;2023-03-14T13:07:12;0.47;;;0.40;;
46613;SDS011;32338;50.430;6.806;2023-03-14T13:09:55;0.35;;;0.35;;
46613;SDS011;32338;50.430;6.806;2023-03-14T13:12:34;0.35;;;0.35;;
46613;SDS011;32338;50.430;6.806;2023-03-14T13:15:13;0.73;;;0.52;;
46613;SDS011;32338;50.430;6.806;2023-03-14T13:17:44;1.20;;;0.60;;
46613;SDS011;32338;50.430;6.806;2023-03-14T13:20:15;1.02;;;0.60;;
46613;SDS011;32338;50.430;6.806;2023-03-14T13:22:48;1.33;;;0.93;;
46613;SDS011;32338;50.430;6.806;2023-03-14T13:25:17;1.67;;;0.98;;
46613;SDS011;32338;50.430;6.806;2023-03-14T13:27:46;1.33;;;0.77;;
46613;SDS011;32338;50.430;6.806;2023-03-14T13:30:17;1.17;;;0.70;;
46613;SDS011;32338;50.430;6.806;2023-03-14T13:32:47;2.92;;;0.88;;
46613;SDS011;32338;50.430;6.806;2023-03-14T13:35:19;0.68;;;0.60;;
46613;SDS011;32338;50.430;6.806;2023-03-14T13:37:51;0.70;;;0.70;;
46613;SDS011;32338;50.430;6.806;2023-03-14T13:40:26;0.77;;;0.70;;
46613;SDS011;32338;50.430;6.806;2023-03-14T13:42:59;0.95;;;0.70;;
46613;SDS011;32338;50.430;6.806;2023-03-14T13:45:28;1.45;;;0.55;;
46613;SDS011;32338;50.430;6.806;2023-03-14T13:47:55;0.70;;;0.60;;
46613;SDS011;32338;50.430;6.806;2023-03-14T13:50:22;1.10;;;0.40;;
46613;SDS011;32338;50.430;6.806;2023-03-14T13:52:54;0.30;;;0.30;;
46613;SDS011;32338;50.430;6.806;2023-03-14T13:55:22;0.20;;;0.20;;
46613;SDS011;32338;50.430;6.806;2023-03-14T13:57:50;0.10;;;0.10;;
46613;SDS011;32338;50.430;6.806;2023-03-14T14:00:20;0.63;;;0.28;;
46613;SDS011;32338;50.430;6.806;2023-03-14T14:02:51;0.47;;;0.20;;
46613;SDS011;32338;50.430;6.806;2023-03-14T14:05:19;1.40;;;0.28;;
46613;SDS011;32338;50.430;6.806;2023-03-14T14:07:46;4.60;;;0.10;;
46613;SDS011;32338;50.430;6.806;2023-03-14T14:10:14;0.10;;;0.10;;
46613;SDS011;32338;50.430;6.806;2023-03-14T14:12:42;0.10;;;0.10;;
46613;SDS011;32338;50.430;6.806;2023-03-14T14:15:17;0.30;;;0.20;;
46613;SDS011;32338;50.430;6.806;2023-03-14T14:17:47;0.20;;;0.17;;
46613;SDS011;32338;50.430;6.806;2023-03-14T14:20:20;0.52;;;0.20;;
46613;SDS011;32338;50.430;6.806;2023-03-14T14:22:49;2.55;;;0.10;;
46613;SDS011;32338;50.430;6.806;2023-03-14T14:25:17;1.27;;;0.20;;
46613;SDS011;32338;50.430;6.806;2023-03-14T14:27:46;0.40;;;0.10;;
46613;SDS011;32338;50.430;6.806;2023-03-14T14:30:27;0.10;;;0.10;;
46613;SDS011;32338;50.430;6.806;2023-03-14T14:33:12;1.02;;;0.10;;
46613;SDS011;32338;50.430;6.806;2023-03-14T14:35:49;0.20;;;0.10;;
46613;SDS011;32338;50.430;6.806;2023-03-14T14:40:48;0.00;;;0.00;;
46613;SDS011;32338;50.430;6.806;2023-03-14T14:43:16;0.10;;;0.10;;
46613;SDS011;32338;50.430;6.806;2023-03-14T14:45:48;0.10;;;0.10;;
46613;SDS011;32338;50.430;6.806;2023-03-14T14:48:18;0.10;;;0.00;;
46613;SDS011;32338;50.430;6.806;2023-03-14T14:50:54;0.80;;;0.10;;
46613;SDS011;32338;50.430;6.806;2023-03-14T14:53:25;0.00;;;0.00;;
46613;SDS011;32338;50.430;6.806;2023-03-14T14:55:55;0.50;;;0.13;;
46613;SDS011;32338;50.430;6.806;2023-03-14T14:58:24;0.10;;;0.00;;
46613;SDS011;32338;50.430;6.806;2023-03-14T15:00:54;0.93;;;0.17;;
46613;SDS011;32338;50.430;6.806;2023-03-14T15:03:28;0.10;;;0.10;;
46613;SDS011;32338;50.430;6.806;2023-03-14T15:05:57;0.20;;;0.20;;
46613;SDS011;32338;50.430;6.806;2023-03-14T15:08:24;0.10;;;0.10;;
46613;SDS011;32338;50.430;6.806;2023-03-14T15:10:51;0.35;;;0.10;;
46613;SDS011;32338;50.430;6.806;2023-03-14T15:13:18;2.08;;;0.10;;
46613;SDS011;32338;50.430;6.806;2023-03-14T15:15:44;0.45;;;0.30;;
46613;SDS011;32338;50.430;6.806;2023-03-14T15:18:14;1.98;;;0.20;;
46613;SDS011;32338;50.430;6.806;2023-03-14T15:20:43;1.33;;;0.20;;
46613;SDS011;32338;50.430;6.806;2023-03-14T15:23:13;0.20;;;0.15;;
46613;SDS011;32338;50.430;6.806;2023-03-14T15:25:42;0.65;;;0.65;;
46613;SDS011;32338;50.430;6.806;2023-03-14T15:28:18;1.35;;;0.30;;
46613;SDS011;32338;50.430;6.806;2023-03-14T15:30:47;2.13;;;0.20;;
46613;SDS011;32338;50.430;6.806;2023-03-14T15:33:16;2.53;;;0.20;;
46613;SDS011;32338;50.430;6.806;2023-03-14T15:35:43;2.17;;;0.10;;
46613;SDS011;32338;50.430;6.806;2023-03-14T15:38:11;1.15;;;0.13;;
46613;SDS011;32338;50.430;6.806;2023-03-14T15:40:38;1.10;;;0.05;;